West Dover, VT (05356)

1:14 PM EDT on August 31, 2016 (GMT -0400)
Summit Meadows | | Change Station

Elev 1818 ft 42.94 °N, 72.85 °W | Updated 10 minutes ago

Overcast
Overcast
70.2 °F
Feels Like 73 °F
N
0.0
Wind Variable Wind from ESE

Today
High -- | Low -- °F
--% Chance of Precip.
Yesterday
High -- | Low -- °F
Precip. -- in
Pressure 29.95 in
Visibility 10.0 miles
Clouds Overcast 10000 ft
Heat Index 73 °F
Dew Point 62 °F
Humidity 75%
Rainfall 0.00 in
Snow Depth Not available.
6:15 AM 7:26 PM
Waning Crescent, 0% visible
METAR KDDH 311654Z AUTO 28003KT 10SM OVC100 23/17 A2996 RMK AO2 RAB44E53 SLP140 P0000 T02330172 TSNO
Pressure 29.95 in
Visibility 10.0 miles
Clouds Overcast 10000 ft
Heat Index 73 °F
Dew Point 62 °F
Humidity 75%
Rainfall 0.00 in
Snow Depth Not available.
6:15 AM 7:26 PM
Waning Crescent, 0% visible
METAR KDDH 311654Z AUTO 28003KT 10SM OVC100 23/17 A2996 RMK AO2 RAB44E53 SLP140 P0000 T02330172 TSNO

10-Day Weather Forecast

Almanac

Astronomy

Aug. 31, 2016 Rise Set
Actual Time
Civil Twilight
Nautical Twilight
Astronomical Twilight
Moon
Length of Visible Light
Length of Day
Tomorrow will be .
, % of the Moon is Illuminated

Today's Extremes

State Highs State Lows

Community

WunderPhotos

Upload Photos

1,936,135 photos uploaded!

WunderBlog® & News

Nearby

Air Quality

  Air Quality AQ Index Pollutant
Not available.

Snow Depth

Station Depth Elevation

Earthquake Activity

City Distance Mag. Time & Date
Minimum magnitude displayed is 2.5.

Coastal Water Temperatures

Place Temperature

Stations

Nearby Weather Stations

Station Location Temp. Windchill Dew Point Humidity Wind Precip. Elev Updated Type
                   

Watches & Warnings

There are currently no watches in effect.